sensor_id;sensor_type;location;lat;lon;timestamp;pressure;altitude;pressure_sealevel;temperature;humidity
73692;BME280;61996;49.910;35.562;2023-06-14T00:00:17;99086.75;;;21.22;49.40
73692;BME280;61996;49.910;35.562;2023-06-14T00:03:21;99087.59;;;21.23;49.57
73692;BME280;61996;49.910;35.562;2023-06-14T00:06:26;99080.72;;;21.20;49.61
73692;BME280;61996;49.910;35.562;2023-06-14T00:09:29;99084.91;;;21.23;49.54
73692;BME280;61996;49.910;35.562;2023-06-14T00:12:32;99081.06;;;21.25;49.32
73692;BME280;61996;49.910;35.562;2023-06-14T00:15:36;99082.06;;;21.24;49.16
73692;BME280;61996;49.910;35.562;2023-06-14T00:18:39;99079.75;;;21.21;49.42
73692;BME280;61996;49.910;35.562;2023-06-14T00:21:41;99081.41;;;21.22;49.23
73692;BME280;61996;49.910;35.562;2023-06-14T00:24:44;99070.72;;;21.22;49.29
73692;BME280;61996;49.910;35.562;2023-06-14T00:27:47;99073.53;;;21.21;49.40
73692;BME280;61996;49.910;35.562;2023-06-14T00:30:51;99073.22;;;21.24;49.38
73692;BME280;61996;49.910;35.562;2023-06-14T00:33:54;99072.38;;;21.23;49.35
73692;BME280;61996;49.910;35.562;2023-06-14T00:36:57;99066.50;;;21.20;49.36
73692;BME280;61996;49.910;35.562;2023-06-14T00:40:00;99065.69;;;21.19;49.38
73692;BME280;61996;49.910;35.562;2023-06-14T00:43:04;99065.34;;;21.22;49.21
73692;BME280;61996;49.910;35.562;2023-06-14T00:46:08;99063.69;;;21.21;49.34
73692;BME280;61996;49.910;35.562;2023-06-14T00:49:11;99057.47;;;21.21;49.25
73692;BME280;61996;49.910;35.562;2023-06-14T00:52:15;99062.00;;;21.20;49.16
73692;BME280;61996;49.910;35.562;2023-06-14T00:55:18;99056.66;;;21.20;49.29
73692;BME280;61996;49.910;35.562;2023-06-14T00:58:21;99054.81;;;21.21;49.36
73692;BME280;61996;49.910;35.562;2023-06-14T01:01:25;99050.31;;;21.21;49.41
73692;BME280;61996;49.910;35.562;2023-06-14T01:04:30;99055.50;;;21.23;49.03
73692;BME280;61996;49.910;35.562;2023-06-14T01:07:35;99058.34;;;21.21;49.16
73692;BME280;61996;49.910;35.562;2023-06-14T01:10:45;99061.69;;;21.23;49.17
73692;BME280;61996;49.910;35.562;2023-06-14T01:13:50;99055.81;;;21.20;49.29
73692;BME280;61996;49.910;35.562;2023-06-14T01:16:56;99062.69;;;21.22;49.00
73692;BME280;61996;49.910;35.562;2023-06-14T01:20:01;99068.03;;;21.22;49.28
73692;BME280;61996;49.910;35.562;2023-06-14T01:23:09;99055.31;;;21.24;49.18
73692;BME280;61996;49.910;35.562;2023-06-14T01:26:13;99068.34;;;21.27;49.04
73692;BME280;61996;49.910;35.562;2023-06-14T01:29:17;99065.66;;;21.27;48.85
73692;BME280;61996;49.910;35.562;2023-06-14T01:32:20;99065.03;;;21.33;48.26
73692;BME280;61996;49.910;35.562;2023-06-14T01:35:23;99058.53;;;21.28;48.92
73692;BME280;61996;49.910;35.562;2023-06-14T01:38:28;99060.22;;;21.29;48.93
73692;BME280;61996;49.910;35.562;2023-06-14T01:41:32;99062.16;;;21.27;48.97
73692;BME280;61996;49.910;35.562;2023-06-14T01:44:36;99065.56;;;21.29;48.55
73692;BME280;61996;49.910;35.562;2023-06-14T01:47:40;99061.53;;;21.33;48.77
73692;BME280;61996;49.910;35.562;2023-06-14T01:50:43;99052.00;;;21.30;48.65
73692;BME280;61996;49.910;35.562;2023-06-14T01:53:47;99064.53;;;21.30;48.71
73692;BME280;61996;49.910;35.562;2023-06-14T01:56:50;99057.34;;;21.30;48.84
73692;BME280;61996;49.910;35.562;2023-06-14T01:59:53;99070.91;;;21.29;48.64
73692;BME280;61996;49.910;35.562;2023-06-14T02:02:56;99064.88;;;21.35;48.58
73692;BME280;61996;49.910;35.562;2023-06-14T02:05:58;99062.03;;;21.37;48.42
73692;BME280;61996;49.910;35.562;2023-06-14T02:09:03;99062.72;;;21.30;48.95
73692;BME280;61996;49.910;35.562;2023-06-14T02:12:06;99063.19;;;21.34;48.20
73692;BME280;61996;49.910;35.562;2023-06-14T02:15:09;99069.72;;;21.31;48.41
73692;BME280;61996;49.910;35.562;2023-06-14T02:18:18;99068.72;;;21.32;48.66
73692;BME280;61996;49.910;35.562;2023-06-14T02:21:21;99075.59;;;21.35;48.26
73692;BME280;61996;49.910;35.562;2023-06-14T02:24:25;99071.38;;;21.32;48.52
73692;BME280;61996;49.910;35.562;2023-06-14T02:27:28;99067.56;;;21.35;48.19
73692;BME280;61996;49.910;35.562;2023-06-14T02:30:31;99071.06;;;21.36;48.26
73692;BME280;61996;49.910;35.562;2023-06-14T02:33:34;99072.91;;;21.35;48.62
73692;BME280;61996;49.910;35.562;2023-06-14T02:36:36;99076.41;;;21.36;48.15
73692;BME280;61996;49.910;35.562;2023-06-14T02:39:44;99080.06;;;21.34;47.98
73692;BME280;61996;49.910;35.562;2023-06-14T02:42:47;99077.25;;;21.36;48.12
73692;BME280;61996;49.910;35.562;2023-06-14T02:45:50;99068.22;;;21.37;47.86
73692;BME280;61996;49.910;35.562;2023-06-14T02:48:53;99070.88;;;21.37;48.00
73692;BME280;61996;49.910;35.562;2023-06-14T02:51:56;99076.25;;;21.37;48.25
73692;BME280;61996;49.910;35.562;2023-06-14T02:55:00;99075.59;;;21.35;48.05
73692;BME280;61996;49.910;35.562;2023-06-14T02:58:03;99062.03;;;21.37;48.15
73692;BME280;61996;49.910;35.562;2023-06-14T03:01:06;99075.06;;;21.40;48.38
73692;BME280;61996;49.910;35.562;2023-06-14T03:04:09;99067.03;;;21.40;48.06
73692;BME280;61996;49.910;35.562;2023-06-14T03:07:12;99060.03;;;21.39;48.10
73692;BME280;61996;49.910;35.562;2023-06-14T03:10:23;99058.00;;;21.32;48.50
73692;BME280;61996;49.910;35.562;2023-06-14T03:13:30;99066.03;;;21.32;48.32
73692;BME280;61996;49.910;35.562;2023-06-14T03:16:34;99060.03;;;21.30;48.72
73692;BME280;61996;49.910;35.562;2023-06-14T03:19:38;99068.06;;;21.30;48.71
73692;BME280;61996;49.910;35.562;2023-06-14T03:22:42;99071.38;;;21.32;48.63
73692;BME280;61996;49.910;35.562;2023-06-14T03:25:49;99073.06;;;21.33;48.62
73692;BME280;61996;49.910;35.562;2023-06-14T03:28:51;99064.03;;;21.34;48.11
73692;BME280;61996;49.910;35.562;2023-06-14T03:31:56;99071.06;;;21.36;48.14
73692;BME280;61996;49.910;35.562;2023-06-14T03:34:59;99069.38;;;21.34;48.33
73692;BME280;61996;49.910;35.562;2023-06-14T03:38:02;99068.22;;;21.37;47.73
73692;BME280;61996;49.910;35.562;2023-06-14T03:41:06;99066.69;;;21.34;47.92
73692;BME280;61996;49.910;35.562;2023-06-14T03:44:09;99068.41;;;21.36;48.12
73692;BME280;61996;49.910;35.562;2023-06-14T03:47:12;99066.88;;;21.33;48.35
73692;BME280;61996;49.910;35.562;2023-06-14T03:50:15;99068.72;;;21.32;48.13
73692;BME280;61996;49.910;35.562;2023-06-14T03:53:18;99063.19;;;21.34;47.86
73692;BME280;61996;49.910;35.562;2023-06-14T03:56:23;99068.53;;;21.34;47.87
73692;BME280;61996;49.910;35.562;2023-06-14T03:59:26;99065.03;;;21.33;48.43
73692;BME280;61996;49.910;35.562;2023-06-14T04:02:29;99068.72;;;21.32;48.34
73692;BME280;61996;49.910;35.562;2023-06-14T04:05:32;99068.06;;;21.30;48.48
73692;BME280;61996;49.910;35.562;2023-06-14T04:08:35;99060.88;;;21.31;47.90
73692;BME280;61996;49.910;35.562;2023-06-14T04:11:39;99073.06;;;21.33;47.75
73692;BME280;61996;49.910;35.562;2023-06-14T04:14:42;99073.75;;;21.36;47.96
73692;BME280;61996;49.910;35.562;2023-06-14T04:17:44;99072.72;;;21.37;47.96
73692;BME280;61996;49.910;35.562;2023-06-14T04:20:47;99067.38;;;21.37;47.96
73692;BME280;61996;49.910;35.562;2023-06-14T04:23:51;99062.88;;;21.37;47.90
73692;BME280;61996;49.910;35.562;2023-06-14T04:26:56;99068.41;;;21.36;48.15
73692;BME280;61996;49.910;35.562;2023-06-14T04:30:00;99071.72;;;21.38;47.77
73692;BME280;61996;49.910;35.562;2023-06-14T04:33:04;99063.88;;;21.36;48.15
73692;BME280;61996;49.910;35.562;2023-06-14T04:36:07;99060.38;;;21.36;48.17
73692;BME280;61996;49.910;35.562;2023-06-14T04:39:10;99064.03;;;21.34;48.07
73692;BME280;61996;49.910;35.562;2023-06-14T04:42:16;99061.88;;;21.30;48.58
73692;BME280;61996;49.910;35.562;2023-06-14T04:45:22;99058.53;;;21.28;48.46
73692;BME280;61996;49.910;35.562;2023-06-14T04:48:25;99072.41;;;21.31;47.87
73692;BME280;61996;49.910;35.562;2023-06-14T04:51:28;99064.19;;;21.33;48.13
73692;BME280;61996;49.910;35.562;2023-06-14T04:54:32;99073.88;;;21.34;47.99
73692;BME280;61996;49.910;35.562;2023-06-14T04:57:36;99065.88;;;21.34;48.34
73692;BME280;61996;49.910;35.562;2023-06-14T05:00:40;99058.66;;;21.34;48.09
73692;BME280;61996;49.910;35.562;2023-06-14T05:03:43;99057.66;;;21.27;48.02
73692;BME280;61996;49.910;35.562;2023-06-14T05:06:50;99059.38;;;21.28;48.22
73692;BME280;61996;49.910;35.562;2023-06-14T05:09:55;99070.72;;;21.30;47.81
73692;BME280;61996;49.910;35.562;2023-06-14T05:13:00;99066.56;;;21.28;47.99
73692;BME280;61996;49.910;35.562;2023-06-14T05:16:03;99076.09;;;21.30;48.03
73692;BME280;61996;49.910;35.562;2023-06-14T05:19:06;99077.91;;;21.30;48.16
73692;BME280;61996;49.910;35.562;2023-06-14T05:22:09;99075.53;;;21.27;48.03
73692;BME280;61996;49.910;35.562;2023-06-14T05:25:12;99064.72;;;21.28;47.85
73692;BME280;61996;49.910;35.562;2023-06-14T05:28:16;99072.56;;;21.30;47.84
73692;BME280;61996;49.910;35.562;2023-06-14T05:31:19;99067.84;;;21.24;48.22
73692;BME280;61996;49.910;35.562;2023-06-14T05:34:22;99082.72;;;21.26;47.89
73692;BME280;61996;49.910;35.562;2023-06-14T05:37:25;99088.25;;;21.25;48.14
73692;BME280;61996;49.910;35.562;2023-06-14T05:40:28;99079.38;;;21.24;47.99
73692;BME280;61996;49.910;35.562;2023-06-14T05:43:32;99075.88;;;21.24;48.01
73692;BME280;61996;49.910;35.562;2023-06-14T05:46:35;99076.88;;;21.23;48.15
73692;BME280;61996;49.910;35.562;2023-06-14T05:49:37;99084.75;;;21.24;47.78
73692;BME280;61996;49.910;35.562;2023-06-14T05:52:40;99079.38;;;21.24;47.68
73692;BME280;61996;49.910;35.562;2023-06-14T05:55:43;99085.09;;;21.21;48.31
73692;BME280;61996;49.910;35.562;2023-06-14T05:58:49;99072.38;;;21.23;47.88
73692;BME280;61996;49.910;35.562;2023-06-14T06:01:52;99075.06;;;21.23;47.94
73692;BME280;61996;49.910;35.562;2023-06-14T06:04:54;99063.53;;;21.23;47.87
73692;BME280;61996;49.910;35.562;2023-06-14T06:07:57;99060.00;;;21.22;48.43
73692;BME280;61996;49.910;35.562;2023-06-14T06:11:00;99064.53;;;21.22;47.81
73692;BME280;61996;49.910;35.562;2023-06-14T06:14:04;99072.38;;;21.23;48.21
73692;BME280;61996;49.910;35.562;2023-06-14T06:17:07;99069.53;;;21.25;47.85
73692;BME280;61996;49.910;35.562;2023-06-14T06:20:10;99071.38;;;21.24;47.84
73692;BME280;61996;49.910;35.562;2023-06-14T06:23:13;99073.22;;;21.24;47.99
73692;BME280;61996;49.910;35.562;2023-06-14T06:26:17;99065.34;;;21.22;48.46
73692;BME280;61996;49.910;35.562;2023-06-14T06:29:21;99070.53;;;21.24;47.60
73692;BME280;61996;49.910;35.562;2023-06-14T06:32:24;99071.03;;;21.19;48.57
73692;BME280;61996;49.910;35.562;2023-06-14T06:35:27;99076.06;;;21.22;47.85
73692;BME280;61996;49.910;35.562;2023-06-14T06:38:31;99073.38;;;21.22;48.15
73692;BME280;61996;49.910;35.562;2023-06-14T06:41:34;99081.53;;;21.21;47.96
73692;BME280;61996;49.910;35.562;2023-06-14T06:44:41;99077.22;;;21.20;48.13
73692;BME280;61996;49.910;35.562;2023-06-14T06:47:44;99079.03;;;21.19;47.91
73692;BME280;61996;49.910;35.562;2023-06-14T06:50:46;99079.75;;;21.21;47.87
73692;BME280;61996;49.910;35.562;2023-06-14T06:53:51;99084.22;;;21.21;48.06
73692;BME280;61996;49.910;35.562;2023-06-14T06:56:54;99086.75;;;21.22;47.78
73692;BME280;61996;49.910;35.562;2023-06-14T06:59:59;99077.72;;;21.23;47.59
73692;BME280;61996;49.910;35.562;2023-06-14T07:03:02;99074.38;;;21.21;48.53
73692;BME280;61996;49.910;35.562;2023-06-14T07:06:05;99079.38;;;21.24;47.95
73692;BME280;61996;49.910;35.562;2023-06-14T07:09:08;99075.06;;;21.23;47.89
73692;BME280;61996;49.910;35.562;2023-06-14T07:12:14;99079.56;;;21.23;47.74
73692;BME280;61996;49.910;35.562;2023-06-14T07:15:18;99078.56;;;21.24;47.80
73692;BME280;61996;49.910;35.562;2023-06-14T07:18:22;99073.22;;;21.24;48.47
73692;BME280;61996;49.910;35.562;2023-06-14T07:21:25;99070.53;;;21.24;47.85
73692;BME280;61996;49.910;35.562;2023-06-14T07:24:28;99080.22;;;21.25;47.81
73692;BME280;61996;49.910;35.562;2023-06-14T07:27:31;99081.88;;;21.26;47.56
73692;BME280;61996;49.910;35.562;2023-06-14T07:30:35;99079.38;;;21.24;48.74
73692;BME280;61996;49.910;35.562;2023-06-14T07:33:38;99075.72;;;21.25;48.70
73692;BME280;61996;49.910;35.562;2023-06-14T07:36:41;99075.72;;;21.25;47.84
73692;BME280;61996;49.910;35.562;2023-06-14T07:39:46;99071.19;;;21.26;47.79
73692;BME280;61996;49.910;35.562;2023-06-14T07:42:48;99066.69;;;21.26;47.84
73692;BME280;61996;49.910;35.562;2023-06-14T07:45:53;99074.03;;;21.24;48.26
73692;BME280;61996;49.910;35.562;2023-06-14T07:49:07;99072.03;;;21.26;48.25
73692;BME280;61996;49.910;35.562;2023-06-14T07:52:10;99076.53;;;21.26;47.71
73692;BME280;61996;49.910;35.562;2023-06-14T07:55:14;99081.72;;;21.27;48.02
73692;BME280;61996;49.910;35.562;2023-06-14T07:58:18;99082.91;;;21.25;48.00
73692;BME280;61996;49.910;35.562;2023-06-14T08:01:22;99077.25;;;21.28;47.66
73692;BME280;61996;49.910;35.562;2023-06-14T08:04:26;99083.06;;;21.23;47.96
73692;BME280;61996;49.910;35.562;2023-06-14T08:07:29;99077.38;;;21.26;47.82
73692;BME280;61996;49.910;35.562;2023-06-14T08:10:32;99072.84;;;21.27;47.99
73692;BME280;61996;49.910;35.562;2023-06-14T08:13:35;99078.94;;;21.29;47.92
73692;BME280;61996;49.910;35.562;2023-06-14T08:16:39;99065.66;;;21.27;47.71
73692;BME280;61996;49.910;35.562;2023-06-14T08:19:42;99072.75;;;21.28;47.93
73692;BME280;61996;49.910;35.562;2023-06-14T08:22:45;99077.09;;;21.29;47.60
73692;BME280;61996;49.910;35.562;2023-06-14T08:25:49;99075.25;;;21.30;47.75
73692;BME280;61996;49.910;35.562;2023-06-14T08:28:52;99065.56;;;21.29;47.91
73692;BME280;61996;49.910;35.562;2023-06-14T08:31:57;99074.41;;;21.29;47.75
73692;BME280;61996;49.910;35.562;2023-06-14T08:35:01;99076.25;;;21.29;47.63
73692;BME280;61996;49.910;35.562;2023-06-14T08:38:07;99061.03;;;21.29;48.17
73692;BME280;61996;49.910;35.562;2023-06-14T08:41:10;99062.72;;;21.30;47.76
73692;BME280;61996;49.910;35.562;2023-06-14T08:44:15;99061.88;;;21.30;47.51
73692;BME280;61996;49.910;35.562;2023-06-14T08:47:19;99076.09;;;21.30;47.62
73692;BME280;61996;49.910;35.562;2023-06-14T08:50:23;99072.41;;;21.31;47.69
73692;BME280;61996;49.910;35.562;2023-06-14T08:53:29;99070.56;;;21.32;47.76
73692;BME280;61996;49.910;35.562;2023-06-14T08:56:36;99064.38;;;21.31;47.77
73692;BME280;61996;49.910;35.562;2023-06-14T08:59:40;99063.38;;;21.32;47.62
73692;BME280;61996;49.910;35.562;2023-06-14T09:02:48;99066.88;;;21.33;47.42
73692;BME280;61996;49.910;35.562;2023-06-14T09:05:51;99065.03;;;21.33;47.68
73692;BME280;61996;49.910;35.562;2023-06-14T09:08:55;99061.34;;;21.34;47.42
73692;BME280;61996;49.910;35.562;2023-06-14T09:11:59;99061.34;;;21.34;47.69
73692;BME280;61996;49.910;35.562;2023-06-14T09:15:02;99054.84;;;21.37;47.60
73692;BME280;61996;49.910;35.562;2023-06-14T09:18:08;99054.00;;;21.37;47.73
73692;BME280;61996;49.910;35.562;2023-06-14T09:21:11;99051.34;;;21.37;47.59
73692;BME280;61996;49.910;35.562;2023-06-14T09:24:14;99052.34;;;21.36;47.99
73692;BME280;61996;49.910;35.562;2023-06-14T09:27:17;99055.69;;;21.38;47.93
73692;BME280;61996;49.910;35.562;2023-06-14T09:30:20;99052.34;;;21.44;47.38
73692;BME280;61996;49.910;35.562;2023-06-14T09:33:24;99059.69;;;21.50;47.57
73692;BME280;61996;49.910;35.562;2023-06-14T09:36:27;99047.63;;;21.46;47.74
73692;BME280;61996;49.910;35.562;2023-06-14T09:39:31;99053.16;;;21.44;47.85
73692;BME280;61996;49.910;35.562;2023-06-14T09:42:33;99052.16;;;21.45;47.61
73692;BME280;61996;49.910;35.562;2023-06-14T09:45:37;99043.28;;;21.45;47.96
73692;BME280;61996;49.910;35.562;2023-06-14T09:48:42;99055.00;;;21.44;47.73
73692;BME280;61996;49.910;35.562;2023-06-14T09:51:45;99039.94;;;21.51;47.62
73692;BME280;61996;49.910;35.562;2023-06-14T09:54:48;99044.97;;;21.46;48.06
73692;BME280;61996;49.910;35.562;2023-06-14T09:57:51;99047.47;;;21.47;47.66
73692;BME280;61996;49.910;35.562;2023-06-14T10:00:55;99048.28;;;21.48;47.96
73692;BME280;61996;49.910;35.562;2023-06-14T10:04:00;99038.44;;;21.48;48.23
73692;BME280;61996;49.910;35.562;2023-06-14T10:07:11;99042.28;;;21.46;47.78
73692;BME280;61996;49.910;35.562;2023-06-14T10:10:15;99046.63;;;21.47;47.65
73692;BME280;61996;49.910;35.562;2023-06-14T10:13:18;99036.94;;;21.46;47.80
73692;BME280;61996;49.910;35.562;2023-06-14T10:16:24;99042.28;;;21.46;47.75
73692;BME280;61996;49.910;35.562;2023-06-14T10:19:32;99034.91;;;21.48;47.70
73692;BME280;61996;49.910;35.562;2023-06-14T10:22:38;99042.09;;;21.47;47.77
73692;BME280;61996;49.910;35.562;2023-06-14T10:25:44;99053.00;;;21.46;47.74
73692;BME280;61996;49.910;35.562;2023-06-14T10:28:57;99042.28;;;21.46;47.86
73692;BME280;61996;49.910;35.562;2023-06-14T10:32:01;99039.44;;;21.47;47.77
73692;BME280;61996;49.910;35.562;2023-06-14T10:35:07;99046.31;;;21.50;47.60
73692;BME280;61996;49.910;35.562;2023-06-14T10:38:11;99046.31;;;21.50;47.53
73692;BME280;61996;49.910;35.562;2023-06-14T10:41:14;99040.94;;;21.50;47.76
73692;BME280;61996;49.910;35.562;2023-06-14T10:47:49;99053.66;;;21.48;47.72
73692;BME280;61996;49.910;35.562;2023-06-14T10:51:01;99050.97;;;21.48;47.86
73692;BME280;61996;49.910;35.562;2023-06-14T10:54:04;99054.66;;;21.47;47.72
73692;BME280;61996;49.910;35.562;2023-06-14T10:57:13;99052.66;;;21.49;47.84
73692;BME280;61996;49.910;35.562;2023-06-14T11:00:17;99061.66;;;21.48;47.54
73692;BME280;61996;49.910;35.562;2023-06-14T11:06:46;99060.19;;;21.45;47.72
73692;BME280;61996;49.910;35.562;2023-06-14T11:09:57;99061.00;;;21.46;47.52
73692;BME280;61996;49.910;35.562;2023-06-14T11:13:07;99063.69;;;21.46;47.67
73692;BME280;61996;49.910;35.562;2023-06-14T11:16:10;99069.03;;;21.46;47.88
73692;BME280;61996;49.910;35.562;2023-06-14T11:19:14;99060.00;;;21.47;47.55
73692;BME280;61996;49.910;35.562;2023-06-14T11:22:20;99067.03;;;21.48;47.73
73692;BME280;61996;49.910;35.562;2023-06-14T11:25:22;99060.84;;;21.47;47.84
73692;BME280;61996;49.910;35.562;2023-06-14T11:28:35;99064.19;;;21.49;47.66
73692;BME280;61996;49.910;35.562;2023-06-14T11:31:38;99059.00;;;21.48;47.72
73692;BME280;61996;49.910;35.562;2023-06-14T11:34:46;99054.66;;;21.47;47.46
73692;BME280;61996;49.910;35.562;2023-06-14T11:37:53;99050.97;;;21.56;48.18
73692;BME280;61996;49.910;35.562;2023-06-14T11:40:58;99049.97;;;21.57;47.67
73692;BME280;61996;49.910;35.562;2023-06-14T11:44:01;99053.16;;;21.52;48.02
73692;BME280;61996;49.910;35.562;2023-06-14T11:47:05;99044.28;;;21.52;47.94
73692;BME280;61996;49.910;35.562;2023-06-14T11:50:09;99048.63;;;21.53;47.87
73692;BME280;61996;49.910;35.562;2023-06-14T11:53:13;99054.81;;;21.53;47.98
73692;BME280;61996;49.910;35.562;2023-06-14T11:56:18;99058.31;;;21.54;47.75
73692;BME280;61996;49.910;35.562;2023-06-14T11:59:21;99055.47;;;21.55;47.89
73692;BME280;61996;49.910;35.562;2023-06-14T12:02:24;99056.34;;;21.56;48.16
73692;BME280;61996;49.910;35.562;2023-06-14T12:05:32;99064.34;;;21.56;48.16
73692;BME280;61996;49.910;35.562;2023-06-14T12:08:37;99068.69;;;21.57;47.98
73692;BME280;61996;49.910;35.562;2023-06-14T12:11:42;99067.88;;;21.56;48.34
73692;BME280;61996;49.910;35.562;2023-06-14T12:14:45;99074.06;;;21.57;48.04
73692;BME280;61996;49.910;35.562;2023-06-14T12:17:49;99060.66;;;21.57;48.31
73692;BME280;61996;49.910;35.562;2023-06-14T12:20:52;99063.50;;;21.55;48.36
73692;BME280;61996;49.910;35.562;2023-06-14T12:23:56;99060.66;;;21.57;48.29
73692;BME280;61996;49.910;35.562;2023-06-14T12:26:59;99067.88;;;21.56;48.54
73692;BME280;61996;49.910;35.562;2023-06-14T12:30:04;99068.69;;;21.57;48.61
73692;BME280;61996;49.910;35.562;2023-06-14T12:33:09;99068.69;;;21.57;48.59
73692;BME280;61996;49.910;35.562;2023-06-14T12:36:13;99068.16;;;21.61;51.26
73692;BME280;61996;49.910;35.562;2023-06-14T12:39:17;99065.88;;;21.34;52.97
73692;BME280;61996;49.910;35.562;2023-06-14T12:42:20;99068.53;;;21.26;53.17
73692;BME280;61996;49.910;35.562;2023-06-14T12:45:24;99061.69;;;21.23;53.67
73692;BME280;61996;49.910;35.562;2023-06-14T12:48:27;99066.50;;;21.20;53.57
73692;BME280;61996;49.910;35.562;2023-06-14T12:51:31;99069.34;;;21.18;53.07
73692;BME280;61996;49.910;35.562;2023-06-14T12:54:35;99061.00;;;21.13;53.45
73692;BME280;61996;49.910;35.562;2023-06-14T12:57:42;99066.34;;;21.13;53.54
73692;BME280;61996;49.910;35.562;2023-06-14T13:00:44;99075.38;;;21.12;53.35
73692;BME280;61996;49.910;35.562;2023-06-14T13:03:47;99072.69;;;21.12;53.61
73692;BME280;61996;49.910;35.562;2023-06-14T13:06:52;99071.03;;;21.19;52.33
73692;BME280;61996;49.910;35.562;2023-06-14T13:09:56;99078.88;;;21.13;53.41
73692;BME280;61996;49.910;35.562;2023-06-14T13:12:59;99066.50;;;21.12;53.45
73692;BME280;61996;49.910;35.562;2023-06-14T13:16:01;99061.34;;;21.02;54.14
73692;BME280;61996;49.910;35.562;2023-06-14T13:19:04;99063.66;;;21.05;54.04
73692;BME280;61996;49.910;35.562;2023-06-14T13:22:07;99066.88;;;21.00;54.46
73692;BME280;61996;49.910;35.562;2023-06-14T13:25:12;99057.00;;;21.01;54.51
73692;BME280;61996;49.910;35.562;2023-06-14T13:28:15;99060.81;;;21.06;53.93
73692;BME280;61996;49.910;35.562;2023-06-14T13:31:17;99051.66;;;21.01;54.77
73692;BME280;61996;49.910;35.562;2023-06-14T13:34:20;99048.97;;;20.93;55.31
73692;BME280;61996;49.910;35.562;2023-06-14T13:37:23;99045.44;;;20.92;55.45
73692;BME280;61996;49.910;35.562;2023-06-14T13:40:27;99048.13;;;20.92;55.37
73692;BME280;61996;49.910;35.562;2023-06-14T13:43:30;99045.44;;;20.92;55.63
73692;BME280;61996;49.910;35.562;2023-06-14T13:46:34;99048.28;;;20.91;55.91
73692;BME280;61996;49.910;35.562;2023-06-14T13:49:37;99051.63;;;20.85;56.19
73692;BME280;61996;49.910;35.562;2023-06-14T13:52:39;99059.66;;;20.85;55.84
73692;BME280;61996;49.910;35.562;2023-06-14T13:55:44;99054.31;;;20.85;55.75
73692;BME280;61996;49.910;35.562;2023-06-14T13:58:46;99056.31;;;20.83;55.89
73692;BME280;61996;49.910;35.562;2023-06-14T14:01:49;99050.13;;;20.74;56.42
73692;BME280;61996;49.910;35.562;2023-06-14T14:04:52;99050.97;;;20.74;56.37
73692;BME280;61996;49.910;35.562;2023-06-14T14:07:56;99040.59;;;20.71;56.09
73692;BME280;61996;49.910;35.562;2023-06-14T14:11:00;99058.31;;;20.97;54.81
73692;BME280;61996;49.910;35.562;2023-06-14T14:14:03;99052.31;;;21.19;54.24
73692;BME280;61996;49.910;35.562;2023-06-14T14:17:06;99060.00;;;21.22;53.14
73692;BME280;61996;49.910;35.562;2023-06-14T14:20:10;99057.16;;;21.24;52.84
73692;BME280;61996;49.910;35.562;2023-06-14T14:23:14;99056.34;;;21.23;53.24
73692;BME280;61996;49.910;35.562;2023-06-14T14:26:19;99050.63;;;21.26;52.81
73692;BME280;61996;49.910;35.562;2023-06-14T14:29:22;99056.69;;;21.28;51.52
73692;BME280;61996;49.910;35.562;2023-06-14T14:32:27;99058.66;;;21.34;51.71
73692;BME280;61996;49.910;35.562;2023-06-14T14:35:31;99057.66;;;21.27;52.92
73692;BME280;61996;49.910;35.562;2023-06-14T14:38:37;99051.31;;;21.20;52.94
73692;BME280;61996;49.910;35.562;2023-06-14T14:41:42;99048.97;;;21.25;51.73
73692;BME280;61996;49.910;35.562;2023-06-14T14:44:45;99052.28;;;21.27;52.80
73692;BME280;61996;49.910;35.562;2023-06-14T14:47:47;99048.97;;;21.25;52.45
73692;BME280;61996;49.910;35.562;2023-06-14T14:50:50;99049.78;;;21.26;52.15
73692;BME280;61996;49.910;35.562;2023-06-14T14:53:53;99042.13;;;21.23;52.52
73692;BME280;61996;49.910;35.562;2023-06-14T14:56:59;99045.94;;;21.20;52.74
73692;BME280;61996;49.910;35.562;2023-06-14T15:00:02;99048.31;;;21.23;53.17
73692;BME280;61996;49.910;35.562;2023-06-14T15:03:05;99043.13;;;21.22;53.01
73692;BME280;61996;49.910;35.562;2023-06-14T15:06:08;99048.13;;;21.25;52.99
73692;BME280;61996;49.910;35.562;2023-06-14T15:09:10;99041.28;;;21.22;53.46
73692;BME280;61996;49.910;35.562;2023-06-14T15:12:15;99040.09;;;21.25;52.32
73692;BME280;61996;49.910;35.562;2023-06-14T15:15:17;99041.13;;;21.24;53.10
73692;BME280;61996;49.910;35.562;2023-06-14T15:18:20;99044.81;;;21.23;53.44
73692;BME280;61996;49.910;35.562;2023-06-14T15:21:23;99036.94;;;21.21;53.00
73692;BME280;61996;49.910;35.562;2023-06-14T15:24:26;99037.09;;;21.20;53.66
73692;BME280;61996;49.910;35.562;2023-06-14T15:27:45;99029.91;;;21.20;53.69
73692;BME280;61996;49.910;35.562;2023-06-14T15:30:48;99030.09;;;21.19;52.76
73692;BME280;61996;49.910;35.562;2023-06-14T15:33:51;99031.91;;;21.18;51.96
73692;BME280;61996;49.910;35.562;2023-06-14T15:36:53;99032.59;;;21.20;52.41
73692;BME280;61996;49.910;35.562;2023-06-14T15:39:56;99032.44;;;21.22;52.00
73692;BME280;61996;49.910;35.562;2023-06-14T15:43:00;99028.25;;;21.19;53.19
73692;BME280;61996;49.910;35.562;2023-06-14T15:46:05;99033.59;;;21.19;53.49
73692;BME280;61996;49.910;35.562;2023-06-14T15:49:08;99031.91;;;21.18;52.81
73692;BME280;61996;49.910;35.562;2023-06-14T15:52:11;99033.94;;;21.24;52.12
73692;BME280;61996;49.910;35.562;2023-06-14T15:55:14;99031.91;;;21.18;52.45
73692;BME280;61996;49.910;35.562;2023-06-14T15:58:18;99030.91;;;21.19;52.93
73692;BME280;61996;49.910;35.562;2023-06-14T16:01:21;99033.59;;;21.19;51.96
73692;BME280;61996;49.910;35.562;2023-06-14T16:04:24;99036.94;;;21.21;52.06
73692;BME280;61996;49.910;35.562;2023-06-14T16:07:27;99037.78;;;21.22;52.30